createdAt,value
2022-12-20T00:00:15.075Z,99.79
2022-12-20T00:02:43.336Z,99.69
2022-12-20T00:05:11.529Z,99.49
2022-12-20T00:07:45.605Z,99.61
2022-12-20T00:10:15.345Z,99.18
2022-12-20T00:13:02.827Z,99.50
2022-12-20T00:15:36.355Z,99.28
2022-12-20T00:18:16.550Z,99.13
2022-12-20T00:20:46.618Z,98.99
2022-12-20T00:23:14.675Z,99.02
2022-12-20T00:25:44.028Z,99.41
2022-12-20T00:28:15.697Z,99.24
2022-12-20T00:30:46.603Z,99.25
2022-12-20T00:33:14.439Z,99.34
2022-12-20T00:35:43.757Z,99.02
2022-12-20T00:38:11.520Z,98.89
2022-12-20T00:40:47.186Z,99.15
2022-12-20T00:43:16.292Z,99.20
2022-12-20T00:45:43.985Z,99.15
2022-12-20T00:48:11.559Z,99.43
2022-12-20T00:50:39.083Z,99.40
2022-12-20T00:53:09.853Z,99.56
2022-12-20T00:55:42.355Z,99.06
2022-12-20T00:58:10.406Z,98.61
2022-12-20T01:00:39.758Z,99.11
2022-12-20T01:03:07.983Z,99.46
2022-12-20T01:05:35.725Z,99.26
2022-12-20T01:08:03.261Z,99.56
2022-12-20T01:10:30.822Z,99.23
2022-12-20T01:12:58.469Z,99.16
2022-12-20T01:15:26.013Z,99.24
2022-12-20T01:17:55.065Z,98.96
2022-12-20T01:20:22.626Z,99.21
2022-12-20T01:22:50.867Z,99.18
2022-12-20T01:25:18.432Z,99.11
2022-12-20T01:27:46.260Z,99.37
2022-12-20T01:30:14.417Z,99.11
2022-12-20T01:32:42.066Z,99.09
2022-12-20T01:35:11.226Z,99.14
2022-12-20T01:37:38.983Z,99.53
2022-12-20T01:40:10.221Z,99.00
2022-12-20T01:42:38.040Z,99.03
2022-12-20T01:45:09.629Z,99.23
2022-12-20T01:47:37.970Z,99.12
2022-12-20T01:50:07.493Z,98.35
2022-12-20T01:52:38.609Z,98.11
2022-12-20T01:55:10.445Z,98.40
2022-12-20T01:57:42.073Z,98.35
2022-12-20T02:00:10.990Z,98.28
2022-12-20T02:02:39.147Z,98.07
2022-12-20T02:05:07.207Z,98.27
2022-12-20T02:07:38.416Z,97.97
2022-12-20T02:10:07.784Z,97.30
2022-12-20T02:12:39.696Z,97.81
2022-12-20T02:15:20.752Z,97.83
2022-12-20T02:17:55.685Z,97.89
2022-12-20T02:20:58.259Z,98.14
2022-12-20T02:24:06.890Z,98.52
2022-12-20T02:26:59.855Z,98.54
2022-12-20T02:29:35.284Z,99.51
2022-12-20T02:32:09.726Z,98.73
2022-12-20T02:34:38.756Z,98.63
2022-12-20T02:37:06.315Z,98.39
2022-12-20T02:39:34.936Z,98.79
2022-12-20T02:42:05.139Z,98.83
2022-12-20T02:44:51.602Z,98.69
2022-12-20T02:47:22.913Z,99.13
2022-12-20T02:49:51.604Z,98.39
2022-12-20T02:52:20.852Z,98.73
2022-12-20T02:54:48.590Z,99.08
2022-12-20T02:57:19.517Z,98.90
2022-12-20T02:59:51.914Z,99.03
2022-12-20T03:02:21.195Z,99.05
2022-12-20T03:04:49.883Z,98.80
2022-12-20T03:07:20.334Z,98.99
2022-12-20T03:09:47.895Z,98.90
2022-12-20T03:12:16.688Z,98.71
2022-12-20T03:14:44.365Z,98.73
2022-12-20T03:17:12.169Z,99.19
2022-12-20T03:19:41.139Z,98.81
2022-12-20T03:22:08.667Z,99.03
2022-12-20T03:24:36.178Z,98.91
2022-12-20T03:27:03.730Z,98.64
2022-12-20T03:29:31.288Z,98.70
2022-12-20T03:31:58.797Z,98.72
2022-12-20T03:34:26.299Z,98.53
2022-12-20T03:36:55.130Z,97.93
2022-12-20T03:39:22.659Z,97.70
2022-12-20T03:41:50.186Z,98.06
2022-12-20T03:44:17.984Z,98.55
2022-12-20T03:46:45.608Z,98.46
2022-12-20T03:49:13.122Z,98.66
2022-12-20T03:51:40.610Z,98.61
2022-12-20T03:54:09.437Z,97.44
2022-12-20T03:56:36.927Z,97.51
2022-12-20T03:59:04.726Z,97.82
2022-12-20T04:01:36.484Z,98.09
2022-12-20T04:04:04.516Z,98.24
2022-12-20T04:06:32.336Z,98.20
2022-12-20T04:08:59.844Z,98.22
2022-12-20T04:11:28.734Z,98.21
2022-12-20T04:13:56.269Z,97.70
2022-12-20T04:16:25.842Z,97.08
2022-12-20T04:18:53.814Z,96.67
2022-12-20T04:21:24.548Z,96.43
2022-12-20T04:23:52.142Z,97.29
2022-12-20T04:26:20.432Z,97.48
2022-12-20T04:28:49.306Z,97.62
2022-12-20T04:31:21.910Z,97.44
2022-12-20T04:33:51.511Z,97.57
2022-12-20T04:36:19.045Z,98.01
2022-12-20T04:38:46.665Z,98.05
2022-12-20T04:41:22.234Z,98.24
2022-12-20T04:43:53.164Z,98.25
2022-12-20T04:46:21.070Z,98.43
2022-12-20T04:48:58.486Z,98.27
2022-12-20T04:51:27.213Z,98.29
2022-12-20T04:53:54.243Z,98.35
2022-12-20T04:56:24.189Z,98.46
2022-12-20T04:58:54.813Z,98.41
2022-12-20T05:01:22.992Z,97.00
2022-12-20T05:03:50.810Z,96.41
2022-12-20T05:06:18.828Z,97.13
2022-12-20T05:08:46.528Z,96.22
2022-12-20T05:11:14.072Z,96.85
2022-12-20T05:13:42.032Z,97.32
2022-12-20T05:16:11.063Z,97.57
2022-12-20T05:18:43.132Z,97.52
2022-12-20T05:21:33.452Z,97.59
2022-12-20T05:24:18.564Z,98.00
2022-12-20T05:26:46.127Z,98.20
2022-12-20T05:29:13.624Z,98.45
2022-12-20T05:31:42.536Z,98.38
2022-12-20T05:34:10.114Z,98.72
2022-12-20T05:36:37.649Z,98.86
2022-12-20T05:39:06.015Z,98.64
2022-12-20T05:41:33.564Z,99.12
2022-12-20T05:44:01.887Z,99.16
2022-12-20T05:46:29.439Z,98.94
2022-12-20T05:48:58.271Z,98.92
2022-12-20T05:51:26.009Z,98.83
2022-12-20T05:53:53.491Z,99.04
2022-12-20T05:56:20.991Z,99.15
2022-12-20T05:58:48.517Z,98.85
2022-12-20T06:01:16.003Z,99.07
2022-12-20T06:03:43.688Z,98.99
2022-12-20T06:06:14.985Z,98.77
2022-12-20T06:08:43.166Z,98.88
2022-12-20T06:11:10.690Z,98.93
2022-12-20T06:13:38.241Z,99.01
2022-12-20T06:16:07.261Z,98.67
2022-12-20T06:18:34.819Z,98.93
2022-12-20T06:21:02.335Z,99.13
2022-12-20T06:23:31.261Z,98.75
2022-12-20T06:25:58.977Z,98.46
2022-12-20T06:28:26.507Z,98.60
2022-12-20T06:30:54.880Z,98.54
2022-12-20T06:33:22.807Z,98.56
2022-12-20T06:35:51.121Z,98.79
2022-12-20T06:38:19.066Z,98.82
2022-12-20T06:40:48.004Z,98.90
2022-12-20T06:43:15.578Z,99.08
2022-12-20T06:45:43.283Z,98.69
2022-12-20T06:48:10.959Z,98.79
2022-12-20T06:50:39.091Z,98.81
2022-12-20T06:53:06.636Z,99.07
2022-12-20T06:55:34.215Z,99.05
2022-12-20T06:58:04.529Z,98.69
2022-12-20T07:00:32.154Z,98.99
2022-12-20T07:02:59.856Z,99.02
2022-12-20T07:05:27.453Z,98.97
2022-12-20T07:07:54.953Z,99.50
2022-12-20T07:10:25.036Z,99.11
2022-12-20T07:12:53.468Z,99.33
2022-12-20T07:15:23.138Z,99.96
2022-12-20T07:17:51.459Z,99.73
2022-12-20T07:20:19.401Z,99.27
2022-12-20T07:22:49.513Z,99.58
2022-12-20T07:25:17.200Z,99.51
2022-12-20T07:27:47.799Z,98.62
2022-12-20T07:30:15.622Z,98.57
2022-12-20T07:32:44.597Z,98.45
2022-12-20T07:35:12.352Z,98.89
2022-12-20T07:37:39.944Z,98.72
2022-12-20T07:40:09.396Z,99.10
2022-12-20T07:42:40.297Z,98.45
2022-12-20T07:45:10.780Z,98.98
2022-12-20T07:47:38.347Z,99.23
2022-12-20T07:50:09.215Z,99.05
2022-12-20T07:52:37.420Z,99.35
2022-12-20T07:55:06.946Z,98.82
2022-12-20T07:57:38.841Z,99.27
2022-12-20T08:00:09.362Z,98.79
2022-12-20T08:02:39.602Z,99.20
2022-12-20T08:05:09.837Z,98.96
2022-12-20T08:07:37.995Z,98.83
2022-12-20T08:10:06.820Z,99.02
2022-12-20T08:12:34.426Z,98.76
2022-12-20T08:15:02.108Z,98.58
2022-12-20T08:17:29.746Z,98.58
2022-12-20T08:19:57.704Z,98.96
2022-12-20T08:22:26.697Z,98.62
2022-12-20T08:24:54.212Z,98.50
2022-12-20T08:27:21.797Z,98.64
2022-12-20T08:29:49.741Z,98.57
2022-12-20T08:32:17.468Z,98.73
2022-12-20T08:34:45.244Z,98.55
2022-12-20T08:37:15.121Z,98.50
2022-12-20T08:39:44.282Z,97.91
2022-12-20T08:42:11.853Z,97.78
2022-12-20T08:44:39.917Z,97.87
2022-12-20T08:47:07.645Z,98.26
2022-12-20T08:49:35.236Z,98.02
2022-12-20T08:52:02.957Z,98.28
2022-12-20T08:54:30.462Z,97.71
2022-12-20T08:56:59.399Z,97.34
2022-12-20T08:59:27.133Z,97.94
2022-12-20T09:01:54.887Z,97.83
2022-12-20T09:04:22.625Z,97.46
2022-12-20T09:06:50.123Z,97.97
2022-12-20T09:09:17.643Z,97.90
2022-12-20T09:11:45.251Z,97.72
2022-12-20T09:14:14.179Z,97.67
2022-12-20T09:16:41.799Z,97.65
2022-12-20T09:19:12.083Z,97.55
2022-12-20T09:21:39.670Z,97.70
2022-12-20T09:24:08.037Z,97.72
2022-12-20T09:26:36.106Z,97.33
2022-12-20T09:29:04.192Z,97.54
2022-12-20T09:31:33.287Z,97.20
2022-12-20T09:34:01.342Z,97.55
2022-12-20T09:36:29.789Z,97.35
2022-12-20T09:38:57.879Z,97.60
2022-12-20T09:41:30.624Z,97.84
2022-12-20T09:43:59.083Z,97.72
2022-12-20T09:46:27.171Z,98.02
2022-12-20T09:48:56.241Z,97.44
2022-12-20T09:51:35.020Z,97.66
2022-12-20T09:54:09.662Z,97.50
2022-12-20T09:56:39.075Z,97.33
2022-12-20T09:59:08.112Z,97.16
2022-12-20T10:01:39.910Z,97.41
2022-12-20T10:04:18.417Z,96.96
2022-12-20T10:06:51.667Z,97.00
2022-12-20T10:09:36.251Z,97.47
2022-12-20T10:12:11.693Z,97.22
2022-12-20T10:14:50.310Z,96.48
2022-12-20T10:17:32.170Z,96.61
2022-12-20T10:20:17.339Z,96.82
2022-12-20T10:22:48.459Z,96.32
2022-12-20T10:25:18.937Z,96.58
2022-12-20T10:27:48.244Z,96.38
2022-12-20T10:30:17.764Z,96.60
2022-12-20T10:32:47.045Z,96.56
2022-12-20T10:35:25.511Z,96.68
2022-12-20T10:38:07.952Z,96.40
2022-12-20T10:41:18.503Z,96.48
2022-12-20T10:43:27.074Z,96.34
2022-12-20T10:45:59.885Z,96.54
2022-12-20T10:48:31.259Z,95.99
2022-12-20T10:51:02.607Z,96.50
2022-12-20T10:53:30.913Z,96.25
2022-12-20T10:56:14.429Z,95.85
2022-12-20T10:58:42.186Z,95.94
2022-12-20T11:01:15.273Z,95.84
2022-12-20T11:03:57.574Z,95.89
2022-12-20T11:06:28.463Z,96.22
2022-12-20T11:09:15.468Z,95.63
2022-12-20T11:11:58.633Z,95.87
2022-12-20T11:14:26.383Z,96.00
2022-12-20T11:16:55.414Z,95.85
2022-12-20T11:19:35.924Z,95.67
2022-12-20T11:22:09.028Z,95.92
2022-12-20T11:24:43.471Z,95.81
2022-12-20T11:27:17.617Z,95.71
2022-12-20T11:29:59.994Z,95.70
2022-12-20T11:32:36.990Z,96.08
2022-12-20T11:35:11.427Z,95.40
2022-12-20T11:37:47.003Z,95.70
2022-12-20T11:40:23.449Z,95.31
2022-12-20T11:43:02.033Z,95.49
2022-12-20T11:45:33.029Z,95.12
2022-12-20T11:48:19.871Z,94.94
2022-12-20T11:50:55.876Z,95.74
2022-12-20T11:53:29.326Z,94.91
2022-12-20T11:55:59.439Z,95.52
2022-12-20T11:58:28.356Z,95.19
2022-12-20T12:00:58.441Z,94.59
2022-12-20T12:03:31.569Z,94.60
2022-12-20T12:06:01.927Z,95.15
2022-12-20T12:08:36.956Z,95.20
2022-12-20T12:11:07.879Z,93.70
2022-12-20T12:13:37.540Z,93.10
2022-12-20T12:16:09.330Z,93.22
2022-12-20T12:18:37.818Z,93.63
2022-12-20T12:21:10.322Z,93.15
2022-12-20T12:23:45.497Z,93.82
2022-12-20T12:26:15.660Z,93.27
2022-12-20T12:28:43.134Z,93.68
2022-12-20T12:31:14.794Z,93.40
2022-12-20T12:33:44.552Z,93.95
2022-12-20T12:36:32.204Z,94.42
2022-12-20T12:39:36.198Z,93.74
2022-12-20T12:42:33.265Z,94.68
2022-12-20T12:45:02.745Z,94.43
2022-12-20T12:47:36.236Z,94.21
2022-12-20T12:50:04.745Z,94.16
2022-12-20T12:52:44.545Z,94.46
2022-12-20T12:55:41.588Z,94.29
2022-12-20T12:58:46.371Z,93.72
2022-12-20T13:01:49.358Z,94.00
2022-12-20T13:04:26.293Z,94.35
2022-12-20T13:07:05.073Z,94.01
2022-12-20T13:09:43.608Z,94.13
2022-12-20T13:12:50.867Z,94.46
2022-12-20T13:15:51.842Z,94.37
2022-12-20T13:18:26.999Z,93.59
2022-12-20T13:21:30.334Z,93.77
2022-12-20T13:24:37.548Z,93.29
2022-12-20T13:27:15.792Z,94.15
2022-12-20T13:30:17.196Z,93.10
2022-12-20T13:33:00.855Z,93.36
2022-12-20T13:35:33.969Z,94.01
2022-12-20T13:38:04.640Z,93.11
2022-12-20T13:40:37.592Z,93.90
2022-12-20T13:43:07.795Z,93.69
2022-12-20T13:45:35.271Z,94.29
2022-12-20T13:48:11.130Z,94.20
2022-12-20T13:50:40.603Z,94.15
2022-12-20T13:53:17.219Z,93.68
2022-12-20T13:55:45.170Z,94.19
2022-12-20T13:58:15.163Z,93.88
2022-12-20T14:00:42.820Z,93.76
2022-12-20T14:03:22.841Z,93.95
2022-12-20T14:05:50.573Z,93.56
2022-12-20T14:08:21.011Z,93.14
2022-12-20T14:10:48.453Z,93.35
2022-12-20T14:13:21.996Z,93.36
2022-12-20T14:15:49.928Z,93.76
2022-12-20T14:18:21.313Z,93.06
2022-12-20T14:20:51.864Z,93.97
2022-12-20T14:23:20.985Z,94.15
2022-12-20T14:25:50.517Z,94.12
2022-12-20T14:28:27.979Z,94.52
2022-12-20T14:30:56.355Z,94.31
2022-12-20T14:33:30.889Z,93.52
2022-12-20T14:35:59.848Z,94.07
2022-12-20T14:38:31.442Z,94.30
2022-12-20T14:40:59.998Z,93.36
2022-12-20T14:43:30.331Z,94.20
2022-12-20T14:46:18.079Z,93.88
2022-12-20T14:48:47.484Z,93.32
2022-12-20T14:51:21.287Z,94.33
2022-12-20T14:53:49.836Z,94.46
2022-12-20T14:56:21.704Z,93.93
2022-12-20T14:59:03.678Z,94.37
2022-12-20T15:01:35.910Z,94.45
2022-12-20T15:04:23.346Z,94.58
2022-12-20T15:06:52.471Z,94.02
2022-12-20T15:09:20.546Z,93.92
2022-12-20T15:11:48.583Z,94.69
2022-12-20T15:14:36.616Z,94.23
2022-12-20T15:17:05.705Z,93.98
2022-12-20T15:19:40.336Z,94.41
2022-12-20T15:22:14.605Z,94.58
2022-12-20T15:24:43.359Z,94.65
2022-12-20T15:27:13.616Z,94.30
2022-12-20T15:29:41.160Z,95.01
2022-12-20T15:32:16.198Z,95.25
2022-12-20T15:34:45.039Z,94.69
2022-12-20T15:37:18.263Z,94.81
2022-12-20T15:39:46.385Z,95.34
2022-12-20T15:42:16.521Z,95.59
2022-12-20T15:44:44.043Z,95.45
2022-12-20T15:47:13.533Z,94.80
2022-12-20T15:49:46.304Z,95.00
2022-12-20T15:52:21.585Z,95.76
2022-12-20T15:54:49.607Z,94.88
2022-12-20T15:57:17.419Z,94.97
2022-12-20T16:00:02.294Z,95.75
2022-12-20T16:02:31.506Z,95.56
2022-12-20T16:04:59.563Z,95.60
2022-12-20T16:07:28.420Z,94.76
2022-12-20T16:09:55.912Z,95.87
2022-12-20T16:12:25.784Z,95.24
2022-12-20T16:14:53.510Z,95.20
2022-12-20T16:17:21.043Z,95.20
2022-12-20T16:19:48.531Z,95.64
2022-12-20T16:22:17.596Z,95.85
2022-12-20T16:24:46.766Z,94.70
2022-12-20T16:27:14.568Z,95.27
2022-12-20T16:29:42.260Z,95.17
2022-12-20T16:32:14.213Z,94.82
2022-12-20T16:34:41.793Z,94.68
2022-12-20T16:37:09.297Z,95.10
2022-12-20T16:39:36.956Z,94.66
2022-12-20T16:42:10.665Z,95.63
2022-12-20T16:44:42.608Z,95.39
2022-12-20T16:47:10.914Z,95.35
2022-12-20T16:49:38.519Z,95.12
2022-12-20T16:52:06.581Z,94.82
2022-12-20T16:54:34.221Z,94.85
2022-12-20T16:57:01.696Z,95.40
2022-12-20T16:59:30.810Z,94.35
2022-12-20T17:01:58.406Z,94.79
2022-12-20T17:04:26.646Z,95.15
2022-12-20T17:06:54.467Z,95.23
2022-12-20T17:09:21.947Z,95.21
2022-12-20T17:11:50.153Z,95.28
2022-12-20T17:14:19.681Z,95.10
2022-12-20T17:16:48.682Z,94.87
2022-12-20T17:19:16.295Z,95.35
2022-12-20T17:24:30.805Z,95.50
2022-12-20T17:26:58.512Z,94.88
2022-12-20T17:29:25.994Z,95.24
2022-12-20T17:31:55.037Z,95.22
2022-12-20T17:34:24.465Z,94.99
2022-12-20T17:36:54.111Z,95.68
2022-12-20T17:39:22.359Z,95.11
2022-12-20T17:41:50.303Z,95.77
2022-12-20T17:44:19.281Z,95.30
2022-12-20T17:46:46.832Z,95.45
2022-12-20T17:49:15.961Z,95.86
2022-12-20T17:51:44.070Z,96.04
2022-12-20T17:54:17.858Z,95.69
2022-12-20T17:56:46.115Z,95.92
2022-12-20T17:59:14.564Z,95.41
2022-12-20T18:01:46.085Z,96.66
2022-12-20T18:04:18.220Z,96.43
2022-12-20T18:06:46.926Z,96.86
2022-12-20T18:09:15.759Z,96.87
2022-12-20T18:11:43.652Z,96.78
2022-12-20T18:14:11.720Z,96.63
2022-12-20T18:16:40.334Z,96.56
2022-12-20T18:19:08.367Z,96.83
2022-12-20T18:21:37.231Z,97.09
2022-12-20T18:24:05.072Z,96.41
2022-12-20T18:26:34.659Z,96.69
2022-12-20T18:29:03.519Z,96.66
2022-12-20T18:31:33.837Z,96.69
2022-12-20T18:34:02.795Z,96.61
2022-12-20T18:36:32.293Z,96.78
2022-12-20T18:39:02.054Z,97.15
2022-12-20T18:41:31.256Z,96.61
2022-12-20T18:44:00.076Z,97.14
2022-12-20T18:46:27.938Z,96.82
2022-12-20T18:48:56.798Z,96.94
2022-12-20T18:51:26.316Z,97.54
2022-12-20T18:53:55.264Z,96.48
2022-12-20T18:56:26.279Z,97.17
2022-12-20T18:58:54.021Z,96.88
2022-12-20T19:01:25.143Z,96.75
2022-12-20T19:03:54.050Z,97.30
2022-12-20T19:06:22.562Z,97.36
2022-12-20T19:08:50.611Z,96.76
2022-12-20T19:11:20.111Z,97.08
2022-12-20T19:13:49.206Z,97.20
2022-12-20T19:16:18.642Z,97.20
2022-12-20T19:18:46.598Z,97.33
2022-12-20T19:21:19.560Z,97.57
2022-12-20T19:23:49.957Z,97.33
2022-12-20T19:26:19.425Z,97.36
2022-12-20T19:28:51.254Z,97.88
2022-12-20T19:31:23.700Z,97.87
2022-12-20T19:33:53.192Z,97.65
2022-12-20T19:36:23.052Z,98.32
2022-12-20T19:38:52.110Z,97.91
2022-12-20T19:41:20.467Z,98.01
2022-12-20T19:43:48.514Z,98.19
2022-12-20T19:46:27.999Z,97.72
2022-12-20T19:48:57.317Z,98.18
2022-12-20T19:51:25.676Z,97.87
2022-12-20T19:53:54.445Z,97.64
2022-12-20T19:56:25.195Z,97.65
2022-12-20T19:58:53.936Z,98.19
2022-12-20T20:01:25.851Z,97.44
2022-12-20T20:03:54.486Z,98.03
2022-12-20T20:06:22.745Z,97.64
2022-12-20T20:08:50.778Z,97.93
2022-12-20T20:11:19.403Z,97.76
2022-12-20T20:13:47.222Z,97.69
2022-12-20T20:16:21.562Z,97.44
2022-12-20T20:18:51.469Z,97.57
2022-12-20T20:21:21.913Z,97.49
2022-12-20T20:23:50.121Z,97.67
2022-12-20T20:26:19.970Z,97.58
2022-12-20T20:28:47.637Z,96.96
2022-12-20T20:31:16.598Z,97.46
2022-12-20T20:33:45.603Z,97.12
2022-12-20T20:36:16.148Z,97.35
2022-12-20T20:38:43.830Z,97.08
2022-12-20T20:41:12.073Z,98.23
2022-12-20T20:43:39.704Z,97.86
2022-12-20T20:46:09.320Z,97.95
2022-12-20T20:48:36.955Z,98.00
2022-12-20T20:51:05.202Z,97.95
2022-12-20T20:53:34.711Z,97.96
2022-12-20T20:56:02.553Z,98.14
2022-12-20T20:58:30.276Z,97.79
2022-12-20T21:00:59.285Z,97.98
2022-12-20T21:03:27.190Z,97.70
2022-12-20T21:08:44.064Z,97.75
2022-12-20T21:11:12.841Z,98.05
2022-12-20T21:13:40.742Z,97.76
2022-12-20T21:16:09.760Z,98.13
2022-12-20T21:18:37.679Z,98.04
2022-12-20T21:21:09.401Z,97.75
2022-12-20T21:23:37.209Z,98.17
2022-12-20T21:26:07.480Z,97.53
2022-12-20T21:28:35.575Z,98.31
2022-12-20T21:31:05.434Z,97.96
2022-12-20T21:33:33.639Z,97.71
2022-12-20T21:36:02.050Z,97.53
2022-12-20T21:38:30.003Z,98.16
2022-12-20T21:41:01.611Z,98.50
2022-12-20T21:43:30.788Z,97.88
2022-12-20T21:45:58.700Z,98.64
2022-12-20T21:48:27.119Z,98.30
2022-12-20T21:51:02.209Z,98.78
2022-12-20T21:53:30.318Z,98.87
2022-12-20T21:55:59.021Z,98.97
2022-12-20T21:58:27.521Z,98.84
2022-12-20T22:00:57.900Z,98.55
2022-12-20T22:03:26.506Z,98.66
2022-12-20T22:05:55.515Z,99.47
2022-12-20T22:08:23.644Z,99.24
2022-12-20T22:10:59.130Z,98.59
2022-12-20T22:13:26.761Z,99.24
2022-12-20T22:15:55.681Z,99.03
2022-12-20T22:18:23.229Z,98.68
2022-12-20T22:20:50.997Z,99.00
2022-12-20T22:23:18.571Z,98.58
2022-12-20T22:25:46.080Z,98.81
2022-12-20T22:28:13.645Z,98.69
2022-12-20T22:30:42.505Z,98.83
2022-12-20T22:33:11.733Z,99.48
2022-12-20T22:35:41.022Z,98.83
2022-12-20T22:38:10.587Z,98.86
2022-12-20T22:40:38.365Z,98.75
2022-12-20T22:43:06.199Z,98.76
2022-12-20T22:45:38.246Z,98.49
2022-12-20T22:48:06.458Z,98.67
2022-12-20T22:50:35.635Z,98.73
2022-12-20T22:53:04.312Z,98.40
2022-12-20T22:55:54.711Z,99.23
2022-12-20T22:58:22.662Z,98.76
2022-12-20T23:00:51.744Z,98.04
2022-12-20T23:03:19.336Z,98.82
2022-12-20T23:05:54.269Z,98.70
2022-12-20T23:08:22.747Z,98.57
2022-12-20T23:11:08.503Z,99.15
2022-12-20T23:13:53.812Z,98.63
2022-12-20T23:16:21.466Z,98.39
2022-12-20T23:18:49.487Z,98.77
2022-12-20T23:21:35.914Z,99.00
2022-12-20T23:24:03.817Z,99.00
2022-12-20T23:26:31.481Z,99.15
2022-12-20T23:28:59.051Z,98.81
2022-12-20T23:31:26.863Z,98.75
2022-12-20T23:33:54.485Z,99.70
2022-12-20T23:36:23.311Z,99.06
2022-12-20T23:38:50.778Z,99.63
2022-12-20T23:41:18.396Z,98.82
2022-12-20T23:43:45.846Z,99.03
2022-12-20T23:46:15.147Z,99.23
2022-12-20T23:48:42.768Z,99.28
2022-12-20T23:51:10.534Z,99.32
2022-12-20T23:53:39.657Z,98.55
2022-12-20T23:56:08.834Z,98.71
2022-12-20T23:58:36.527Z,98.55
